sensor_id;sensor_type;location;lat;lon;timestamp;pressure;altitude;pressure_sealevel;temperature;humidity
76605;BME280;73179;50.978;16.998;2024-03-02T00:01:30;99336.84;;;8.17;100.00
76605;BME280;73179;50.978;16.998;2024-03-02T00:03:56;99360.31;;;8.40;100.00
76605;BME280;73179;50.978;16.998;2024-03-02T00:06:21;99167.13;;;7.03;100.00
76605;BME280;73179;50.978;16.998;2024-03-02T00:08:48;99291.72;;;7.80;100.00
76605;BME280;73179;50.978;16.998;2024-03-02T00:11:13;99332.25;;;8.18;100.00
76605;BME280;73179;50.978;16.998;2024-03-02T00:13:41;99406.56;;;8.52;100.00
76605;BME280;73179;50.978;16.998;2024-03-02T00:16:06;99380.06;;;8.36;100.00
76605;BME280;73179;50.978;16.998;2024-03-02T00:18:34;99168.47;;;7.06;100.00
76605;BME280;73179;50.978;16.998;2024-03-02T00:21:00;99409.16;;;8.57;100.00
76605;BME280;73179;50.978;16.998;2024-03-02T00:23:31;99378.59;;;8.43;100.00
76605;BME280;73179;50.978;16.998;2024-03-02T00:25:57;99258.44;;;7.71;100.00
76605;BME280;73179;50.978;16.998;2024-03-02T00:28:30;99266.41;;;7.81;100.00
76605;BME280;73179;50.978;16.998;2024-03-02T00:31:09;99392.00;;;8.72;100.00
76605;BME280;73179;50.978;16.998;2024-03-02T00:33:47;99372.44;;;8.61;100.00
76605;BME280;73179;50.978;16.998;2024-03-02T00:36:22;99370.53;;;8.62;100.00
76605;BME280;73179;50.978;16.998;2024-03-02T00:38:52;99144.25;;;7.30;100.00
76605;BME280;73179;50.978;16.998;2024-03-02T00:41:28;99315.63;;;8.34;100.00
76605;BME280;73179;50.978;16.998;2024-03-02T00:44:01;99385.06;;;8.85;100.00
76605;BME280;73179;50.978;16.998;2024-03-02T00:46:29;99251.06;;;8.00;100.00
76605;BME280;73179;50.978;16.998;2024-03-02T00:49:00;99385.00;;;8.90;100.00
76605;BME280;73179;50.978;16.998;2024-03-02T00:51:28;99392.81;;;8.91;100.00
76605;BME280;73179;50.978;16.998;2024-03-02T00:53:57;99343.41;;;8.53;100.00
76605;BME280;73179;50.978;16.998;2024-03-02T00:56:24;99354.28;;;8.67;100.00
76605;BME280;73179;50.978;16.998;2024-03-02T00:58:50;99391.19;;;8.90;100.00
76605;BME280;73179;50.978;16.998;2024-03-02T01:01:17;99342.03;;;8.56;100.00
76605;BME280;73179;50.978;16.998;2024-03-02T01:03:43;99329.63;;;8.55;100.00
76605;BME280;73179;50.978;16.998;2024-03-02T01:06:09;99380.63;;;8.94;100.00
76605;BME280;73179;50.978;16.998;2024-03-02T01:08:35;99337.22;;;8.53;100.00
76605;BME280;73179;50.978;16.998;2024-03-02T01:11:02;99366.53;;;8.78;100.00
76605;BME280;73179;50.978;16.998;2024-03-02T01:13:28;99392.00;;;8.91;100.00
76605;BME280;73179;50.978;16.998;2024-03-02T01:15:53;99400.81;;;8.96;100.00
76605;BME280;73179;50.978;16.998;2024-03-02T01:18:19;99399.78;;;8.92;100.00
76605;BME280;73179;50.978;16.998;2024-03-02T01:20:45;99385.78;;;8.72;100.00
76605;BME280;73179;50.978;16.998;2024-03-02T01:23:11;99195.31;;;7.58;100.00
76605;BME280;73179;50.978;16.998;2024-03-02T01:25:37;99291.88;;;8.12;100.00
76605;BME280;73179;50.978;16.998;2024-03-02T01:28:04;99245.22;;;7.75;100.00
76605;BME280;73179;50.978;16.998;2024-03-02T01:30:29;99306.34;;;8.22;100.00
76605;BME280;73179;50.978;16.998;2024-03-02T01:32:55;99361.13;;;8.59;100.00
76605;BME280;73179;50.978;16.998;2024-03-02T01:35:21;99311.34;;;8.09;100.00
76605;BME280;73179;50.978;16.998;2024-03-02T01:37:47;99299.75;;;8.09;100.00
76605;BME280;73179;50.978;16.998;2024-03-02T01:40:13;99140.44;;;7.07;100.00
76605;BME280;73179;50.978;16.998;2024-03-02T01:42:39;99376.66;;;8.49;100.00
76605;BME280;73179;50.978;16.998;2024-03-02T01:45:08;99407.53;;;8.80;100.00
76605;BME280;73179;50.978;16.998;2024-03-02T01:47:35;99335.38;;;8.30;100.00
76605;BME280;73179;50.978;16.998;2024-03-02T01:50:01;99355.94;;;8.44;100.00
76605;BME280;73179;50.978;16.998;2024-03-02T01:52:27;99354.19;;;8.53;100.00
76605;BME280;73179;50.978;16.998;2024-03-02T01:54:53;99312.75;;;8.26;100.00
76605;BME280;73179;50.978;16.998;2024-03-02T01:57:19;99322.97;;;8.29;100.00
76605;BME280;73179;50.978;16.998;2024-03-02T01:59:46;99324.50;;;8.35;100.00
76605;BME280;73179;50.978;16.998;2024-03-02T02:02:14;99357.19;;;8.52;100.00
76605;BME280;73179;50.978;16.998;2024-03-02T02:04:40;99379.16;;;8.64;100.00
76605;BME280;73179;50.978;16.998;2024-03-02T02:07:06;99317.81;;;8.32;100.00
76605;BME280;73179;50.978;16.998;2024-03-02T02:09:32;99378.72;;;8.57;100.00
76605;BME280;73179;50.978;16.998;2024-03-02T02:11:58;99346.25;;;8.43;100.00
76605;BME280;73179;50.978;16.998;2024-03-02T02:14:24;99374.78;;;8.49;100.00
76605;BME280;73179;50.978;16.998;2024-03-02T02:16:50;99386.38;;;8.69;100.00
76605;BME280;73179;50.978;16.998;2024-03-02T02:19:17;99184.94;;;7.23;100.00
76605;BME280;73179;50.978;16.998;2024-03-02T02:21:43;99075.66;;;6.56;100.00
76605;BME280;73179;50.978;16.998;2024-03-02T02:24:09;99228.38;;;7.64;100.00
76605;BME280;73179;50.978;16.998;2024-03-02T02:26:35;99336.84;;;8.17;100.00
76605;BME280;73179;50.978;16.998;2024-03-02T02:29:01;99380.16;;;8.49;100.00
76605;BME280;73179;50.978;16.998;2024-03-02T02:31:27;99293.56;;;8.08;100.00
76605;BME280;73179;50.978;16.998;2024-03-02T02:33:52;99295.03;;;7.96;100.00
76605;BME280;73179;50.978;16.998;2024-03-02T02:36:18;99170.44;;;7.19;100.00
76605;BME280;73179;50.978;16.998;2024-03-02T02:38:46;99131.00;;;6.86;100.00
76605;BME280;73179;50.978;16.998;2024-03-02T02:41:13;99193.09;;;7.18;100.00
76605;BME280;73179;50.978;16.998;2024-03-02T02:43:39;99086.41;;;6.56;100.00
76605;BME280;73179;50.978;16.998;2024-03-02T02:46:06;99344.75;;;8.08;100.00
76605;BME280;73179;50.978;16.998;2024-03-02T02:48:31;99358.19;;;8.13;100.00
76605;BME280;73179;50.978;16.998;2024-03-02T02:50:57;99195.13;;;7.02;100.00
76605;BME280;73179;50.978;16.998;2024-03-02T02:53:23;99218.91;;;7.19;100.00
76605;BME280;73179;50.978;16.998;2024-03-02T02:55:49;99219.81;;;7.09;100.00
76605;BME280;73179;50.978;16.998;2024-03-02T02:58:15;99179.75;;;6.79;100.00
76605;BME280;73179;50.978;16.998;2024-03-02T03:00:41;99335.75;;;7.71;100.00
76605;BME280;73179;50.978;16.998;2024-03-02T03:03:06;99358.53;;;7.83;100.00
76605;BME280;73179;50.978;16.998;2024-03-02T03:05:33;99329.00;;;7.73;100.00
76605;BME280;73179;50.978;16.998;2024-03-02T03:07:58;99230.63;;;7.04;100.00
76605;BME280;73179;50.978;16.998;2024-03-02T03:10:24;99258.03;;;7.35;100.00
76605;BME280;73179;50.978;16.998;2024-03-02T03:12:52;99351.53;;;8.06;100.00
76605;BME280;73179;50.978;16.998;2024-03-02T03:15:18;99248.13;;;7.31;100.00
76605;BME280;73179;50.978;16.998;2024-03-02T03:17:44;99381.25;;;8.25;100.00
76605;BME280;73179;50.978;16.998;2024-03-02T03:20:11;99191.28;;;7.08;100.00
76605;BME280;73179;50.978;16.998;2024-03-02T03:22:40;99228.81;;;7.24;100.00
76605;BME280;73179;50.978;16.998;2024-03-02T03:25:06;99354.16;;;8.11;100.00
76605;BME280;73179;50.978;16.998;2024-03-02T03:27:35;99239.16;;;7.40;100.00
76605;BME280;73179;50.978;16.998;2024-03-02T03:30:02;99342.66;;;8.05;100.00
76605;BME280;73179;50.978;16.998;2024-03-02T03:32:28;99320.34;;;8.00;100.00
76605;BME280;73179;50.978;16.998;2024-03-02T03:34:54;99351.94;;;8.18;100.00
76605;BME280;73179;50.978;16.998;2024-03-02T03:37:20;99324.47;;;7.92;100.00
76605;BME280;73179;50.978;16.998;2024-03-02T03:39:46;99385.50;;;8.31;100.00
76605;BME280;73179;50.978;16.998;2024-03-02T03:42:11;99334.13;;;7.98;100.00
76605;BME280;73179;50.978;16.998;2024-03-02T03:44:37;99187.13;;;7.21;100.00
76605;BME280;73179;50.978;16.998;2024-03-02T03:47:04;99304.06;;;7.86;100.00
76605;BME280;73179;50.978;16.998;2024-03-02T03:49:30;99194.44;;;7.15;100.00
76605;BME280;73179;50.978;16.998;2024-03-02T03:51:56;99340.94;;;8.14;100.00
76605;BME280;73179;50.978;16.998;2024-03-02T03:54:22;99356.44;;;8.23;100.00
76605;BME280;73179;50.978;16.998;2024-03-02T03:56:47;99167.28;;;6.88;100.00
76605;BME280;73179;50.978;16.998;2024-03-02T03:59:13;99314.50;;;7.93;100.00
76605;BME280;73179;50.978;16.998;2024-03-02T04:01:39;99231.69;;;7.32;100.00
76605;BME280;73179;50.978;16.998;2024-03-02T04:04:05;99355.72;;;8.17;100.00
76605;BME280;73179;50.978;16.998;2024-03-02T04:06:30;99261.81;;;7.58;100.00
76605;BME280;73179;50.978;16.998;2024-03-02T04:08:56;99325.03;;;7.89;100.00
76605;BME280;73179;50.978;16.998;2024-03-02T04:11:22;99259.44;;;7.56;100.00
76605;BME280;73179;50.978;16.998;2024-03-02T04:13:48;99347.28;;;8.00;100.00
76605;BME280;73179;50.978;16.998;2024-03-02T04:16:14;99308.78;;;7.76;100.00
76605;BME280;73179;50.978;16.998;2024-03-02T04:18:40;99323.78;;;7.82;100.00
76605;BME280;73179;50.978;16.998;2024-03-02T04:21:06;99295.28;;;7.52;100.00
76605;BME280;73179;50.978;16.998;2024-03-02T04:23:32;99393.19;;;8.19;100.00
76605;BME280;73179;50.978;16.998;2024-03-02T04:25:58;99362.56;;;8.09;100.00
76605;BME280;73179;50.978;16.998;2024-03-02T04:28:24;99354.50;;;8.04;100.00
76605;BME280;73179;50.978;16.998;2024-03-02T04:30:50;99284.38;;;7.38;100.00
76605;BME280;73179;50.978;16.998;2024-03-02T04:33:16;99243.19;;;7.14;100.00
76605;BME280;73179;50.978;16.998;2024-03-02T04:35:42;99313.81;;;7.58;100.00
76605;BME280;73179;50.978;16.998;2024-03-02T04:38:08;99208.59;;;7.02;100.00
76605;BME280;73179;50.978;16.998;2024-03-02T04:40:34;99345.69;;;7.75;100.00
76605;BME280;73179;50.978;16.998;2024-03-02T04:42:59;99336.44;;;7.57;100.00
76605;BME280;73179;50.978;16.998;2024-03-02T04:45:25;99256.41;;;7.10;100.00
76605;BME280;73179;50.978;16.998;2024-03-02T04:47:51;99356.97;;;7.77;100.00
76605;BME280;73179;50.978;16.998;2024-03-02T04:50:17;99366.16;;;7.76;100.00
76605;BME280;73179;50.978;16.998;2024-03-02T04:52:43;99355.03;;;7.54;100.00
76605;BME280;73179;50.978;16.998;2024-03-02T04:55:09;99336.63;;;7.37;100.00
76605;BME280;73179;50.978;16.998;2024-03-02T04:57:52;99414.50;;;7.91;100.00
76605;BME280;73179;50.978;16.998;2024-03-02T05:00:20;99383.41;;;7.75;100.00
76605;BME280;73179;50.978;16.998;2024-03-02T05:02:46;99364.13;;;7.63;100.00
76605;BME280;73179;50.978;16.998;2024-03-02T05:05:12;99411.03;;;7.86;100.00
76605;BME280;73179;50.978;16.998;2024-03-02T05:07:38;99354.81;;;7.50;100.00
76605;BME280;73179;50.978;16.998;2024-03-02T05:10:04;99297.66;;;7.01;100.00
76605;BME280;73179;50.978;16.998;2024-03-02T05:12:30;99379.03;;;7.50;100.00
76605;BME280;73179;50.978;16.998;2024-03-02T05:15:13;99367.34;;;7.36;100.00
76605;BME280;73179;50.978;16.998;2024-03-02T05:17:40;99331.19;;;7.13;100.00
76605;BME280;73179;50.978;16.998;2024-03-02T05:20:09;99425.50;;;7.66;100.00
76605;BME280;73179;50.978;16.998;2024-03-02T05:22:35;99432.63;;;7.52;100.00
76605;BME280;73179;50.978;16.998;2024-03-02T05:25:03;99284.84;;;6.49;100.00
76605;BME280;73179;50.978;16.998;2024-03-02T05:27:30;99443.16;;;7.48;100.00
76605;BME280;73179;50.978;16.998;2024-03-02T05:29:56;99438.81;;;7.52;100.00
76605;BME280;73179;50.978;16.998;2024-03-02T05:32:21;99269.84;;;6.43;100.00
76605;BME280;73179;50.978;16.998;2024-03-02T05:34:47;99321.38;;;6.60;100.00
76605;BME280;73179;50.978;16.998;2024-03-02T05:37:13;99323.75;;;6.61;100.00
76605;BME280;73179;50.978;16.998;2024-03-02T05:39:39;99279.53;;;6.44;100.00
76605;BME280;73179;50.978;16.998;2024-03-02T05:42:05;99279.38;;;6.25;100.00
76605;BME280;73179;50.978;16.998;2024-03-02T05:44:31;99306.72;;;6.32;100.00
76605;BME280;73179;50.978;16.998;2024-03-02T05:46:57;99328.16;;;6.47;100.00
76605;BME280;73179;50.978;16.998;2024-03-02T05:49:23;99403.25;;;6.83;100.00
76605;BME280;73179;50.978;16.998;2024-03-02T05:51:49;99407.25;;;6.85;100.00
76605;BME280;73179;50.978;16.998;2024-03-02T05:54:15;99349.41;;;6.44;100.00
76605;BME280;73179;50.978;16.998;2024-03-02T05:56:41;99423.88;;;6.97;100.00
76605;BME280;73179;50.978;16.998;2024-03-02T05:59:07;99380.22;;;6.66;100.00
76605;BME280;73179;50.978;16.998;2024-03-02T06:01:39;99390.38;;;6.75;100.00
76605;BME280;73179;50.978;16.998;2024-03-02T06:04:06;99459.81;;;7.11;100.00
76605;BME280;73179;50.978;16.998;2024-03-02T06:06:33;99425.56;;;6.83;100.00
76605;BME280;73179;50.978;16.998;2024-03-02T06:09:03;99447.09;;;6.83;100.00
76605;BME280;73179;50.978;16.998;2024-03-02T06:11:39;99329.06;;;6.22;100.00
76605;BME280;73179;50.978;16.998;2024-03-02T06:14:07;99428.25;;;6.83;100.00
76605;BME280;73179;50.978;16.998;2024-03-02T06:16:33;99413.84;;;6.64;100.00
76605;BME280;73179;50.978;16.998;2024-03-02T06:19:00;99457.78;;;6.93;100.00
76605;BME280;73179;50.978;16.998;2024-03-02T06:21:27;99417.09;;;6.56;100.00
76605;BME280;73179;50.978;16.998;2024-03-02T06:23:53;99466.44;;;6.80;100.00
76605;BME280;73179;50.978;16.998;2024-03-02T06:26:19;99477.44;;;6.94;100.00
76605;BME280;73179;50.978;16.998;2024-03-02T06:28:46;99311.50;;;5.76;100.00
76605;BME280;73179;50.978;16.998;2024-03-02T06:31:12;99452.44;;;6.88;100.00
76605;BME280;73179;50.978;16.998;2024-03-02T06:33:38;99430.97;;;6.83;100.00
76605;BME280;73179;50.978;16.998;2024-03-02T06:36:04;99426.16;;;6.75;100.00
76605;BME280;73179;50.978;16.998;2024-03-02T06:38:30;99404.19;;;6.58;100.00
76605;BME280;73179;50.978;16.998;2024-03-02T06:40:59;99379.84;;;6.29;100.00
76605;BME280;73179;50.978;16.998;2024-03-02T06:43:25;99359.13;;;6.30;100.00
76605;BME280;73179;50.978;16.998;2024-03-02T06:45:51;99348.69;;;6.28;100.00
76605;BME280;73179;50.978;16.998;2024-03-02T06:48:17;99463.91;;;7.04;100.00
76605;BME280;73179;50.978;16.998;2024-03-02T06:50:49;99359.66;;;6.37;100.00
76605;BME280;73179;50.978;16.998;2024-03-02T06:53:16;99433.00;;;6.96;100.00
76605;BME280;73179;50.978;16.998;2024-03-02T06:55:46;99492.03;;;7.27;100.00
76605;BME280;73179;50.978;16.998;2024-03-02T06:58:13;99493.31;;;7.34;100.00
76605;BME280;73179;50.978;16.998;2024-03-02T07:00:40;99390.72;;;6.58;100.00
76605;BME280;73179;50.978;16.998;2024-03-02T07:03:06;99449.13;;;7.01;100.00
76605;BME280;73179;50.978;16.998;2024-03-02T07:05:32;99447.91;;;7.23;100.00
76605;BME280;73179;50.978;16.998;2024-03-02T07:07:58;99488.00;;;7.68;100.00
76605;BME280;73179;50.978;16.998;2024-03-02T07:10:24;99405.16;;;7.50;100.00
76605;BME280;73179;50.978;16.998;2024-03-02T07:12:50;99463.41;;;8.03;100.00
76605;BME280;73179;50.978;16.998;2024-03-02T07:15:16;99438.25;;;8.13;100.00
76605;BME280;73179;50.978;16.998;2024-03-02T07:18:08;99393.41;;;7.98;100.00
76605;BME280;73179;50.978;16.998;2024-03-02T07:20:34;99236.47;;;7.11;100.00
76605;BME280;73179;50.978;16.998;2024-03-02T07:23:00;99446.66;;;8.59;100.00
76605;BME280;73179;50.978;16.998;2024-03-02T07:25:26;99272.50;;;7.44;100.00
76605;BME280;73179;50.978;16.998;2024-03-02T07:27:53;99328.91;;;7.83;100.00
76605;BME280;73179;50.978;16.998;2024-03-02T07:30:19;99496.03;;;9.02;100.00
76605;BME280;73179;50.978;16.998;2024-03-02T07:32:45;99491.13;;;8.85;100.00
76605;BME280;73179;50.978;16.998;2024-03-02T07:35:12;99479.22;;;8.86;100.00
76605;BME280;73179;50.978;16.998;2024-03-02T07:37:41;99419.25;;;8.71;100.00
76605;BME280;73179;50.978;16.998;2024-03-02T07:40:07;99195.38;;;7.06;100.00
76605;BME280;73179;50.978;16.998;2024-03-02T07:42:39;99519.31;;;9.17;100.00
76605;BME280;73179;50.978;16.998;2024-03-02T07:45:06;99368.25;;;8.32;100.00
76605;BME280;73179;50.978;16.998;2024-03-02T07:47:36;99467.00;;;8.94;100.00
76605;BME280;73179;50.978;16.998;2024-03-02T07:50:02;99417.38;;;8.71;100.00
76605;BME280;73179;50.978;16.998;2024-03-02T07:52:28;99371.72;;;8.56;100.00
76605;BME280;73179;50.978;16.998;2024-03-02T07:55:04;99235.28;;;7.70;100.00
76605;BME280;73179;50.978;16.998;2024-03-02T07:57:31;99227.06;;;7.80;100.00
76605;BME280;73179;50.978;16.998;2024-03-02T07:59:57;99510.56;;;9.62;100.00
76605;BME280;73179;50.978;16.998;2024-03-02T08:02:25;99397.53;;;9.18;100.00
76605;BME280;73179;50.978;16.998;2024-03-02T08:04:51;99335.13;;;8.69;100.00
76605;BME280;73179;50.978;16.998;2024-03-02T08:07:17;99367.56;;;8.82;100.00
76605;BME280;73179;50.978;16.998;2024-03-02T08:09:43;99256.03;;;8.12;100.00
76605;BME280;73179;50.978;16.998;2024-03-02T08:12:09;99399.28;;;9.09;100.00
76605;BME280;73179;50.978;16.998;2024-03-02T08:14:35;99387.25;;;9.01;100.00
76605;BME280;73179;50.978;16.998;2024-03-02T08:17:01;99494.88;;;9.64;100.00
76605;BME280;73179;50.978;16.998;2024-03-02T08:19:27;99262.41;;;8.21;100.00
76605;BME280;73179;50.978;16.998;2024-03-02T08:21:53;99535.56;;;10.05;100.00
76605;BME280;73179;50.978;16.998;2024-03-02T08:24:19;99357.19;;;9.08;100.00
76605;BME280;73179;50.978;16.998;2024-03-02T08:26:45;99301.50;;;8.61;100.00
76605;BME280;73179;50.978;16.998;2024-03-02T08:29:11;99413.19;;;9.53;100.00
76605;BME280;73179;50.978;16.998;2024-03-02T08:31:37;99538.84;;;10.21;100.00
76605;BME280;73179;50.978;16.998;2024-03-02T08:34:03;99293.81;;;8.87;100.00
76605;BME280;73179;50.978;16.998;2024-03-02T08:36:29;99513.44;;;10.49;100.00
76605;BME280;73179;50.978;16.998;2024-03-02T08:38:55;99360.31;;;9.47;100.00
76605;BME280;73179;50.978;16.998;2024-03-02T08:41:21;99246.41;;;8.81;100.00
76605;BME280;73179;50.978;16.998;2024-03-02T08:43:47;99256.31;;;8.85;100.00
76605;BME280;73179;50.978;16.998;2024-03-02T08:46:14;99291.69;;;9.02;100.00
76605;BME280;73179;50.978;16.998;2024-03-02T08:48:39;99448.41;;;10.08;100.00
76605;BME280;73179;50.978;16.998;2024-03-02T08:51:05;99412.34;;;9.85;100.00
76605;BME280;73179;50.978;16.998;2024-03-02T08:53:33;99515.75;;;10.42;100.00
76605;BME280;73179;50.978;16.998;2024-03-02T08:55:59;99466.91;;;10.20;100.00
76605;BME280;73179;50.978;16.998;2024-03-02T08:58:25;99465.81;;;10.21;100.00
76605;BME280;73179;50.978;16.998;2024-03-02T09:00:51;99385.91;;;9.82;100.00
76605;BME280;73179;50.978;16.998;2024-03-02T09:03:17;99469.34;;;10.35;100.00
76605;BME280;73179;50.978;16.998;2024-03-02T09:05:43;99502.13;;;10.74;100.00
76605;BME280;73179;50.978;16.998;2024-03-02T09:08:10;99350.25;;;9.67;100.00
76605;BME280;73179;50.978;16.998;2024-03-02T09:10:36;99441.69;;;10.38;100.00
76605;BME280;73179;50.978;16.998;2024-03-02T09:13:04;99442.69;;;10.42;100.00
76605;BME280;73179;50.978;16.998;2024-03-02T09:15:30;99475.66;;;10.71;100.00
76605;BME280;73179;50.978;16.998;2024-03-02T09:17:55;99469.44;;;10.71;100.00
76605;BME280;73179;50.978;16.998;2024-03-02T09:20:22;99523.28;;;10.99;100.00
76605;BME280;73179;50.978;16.998;2024-03-02T09:22:48;99511.22;;;11.06;100.00
76605;BME280;73179;50.978;16.998;2024-03-02T09:25:14;99412.41;;;10.40;100.00
76605;BME280;73179;50.978;16.998;2024-03-02T09:27:41;99494.38;;;10.95;100.00
76605;BME280;73179;50.978;16.998;2024-03-02T09:30:08;99521.25;;;11.19;100.00
76605;BME280;73179;50.978;16.998;2024-03-02T09:32:34;99369.75;;;10.23;100.00
76605;BME280;73179;50.978;16.998;2024-03-02T09:35:00;99518.50;;;11.32;100.00
76605;BME280;73179;50.978;16.998;2024-03-02T09:37:26;99356.91;;;10.29;100.00
76605;BME280;73179;50.978;16.998;2024-03-02T09:39:52;99495.75;;;11.20;100.00
76605;BME280;73179;50.978;16.998;2024-03-02T09:42:18;99491.31;;;11.24;100.00
76605;BME280;73179;50.978;16.998;2024-03-02T09:44:45;99455.91;;;10.84;100.00
76605;BME280;73179;50.978;16.998;2024-03-02T09:47:11;99427.88;;;10.89;100.00
76605;BME280;73179;50.978;16.998;2024-03-02T09:49:37;99476.66;;;11.25;100.00
76605;BME280;73179;50.978;16.998;2024-03-02T09:52:03;99468.31;;;10.99;100.00
76605;BME280;73179;50.978;16.998;2024-03-02T09:54:30;99426.13;;;10.84;100.00
76605;BME280;73179;50.978;16.998;2024-03-02T09:56:56;99346.00;;;10.34;100.00
76605;BME280;73179;50.978;16.998;2024-03-02T09:59:22;99404.56;;;10.79;100.00
76605;BME280;73179;50.978;16.998;2024-03-02T10:02:08;99467.44;;;11.26;100.00
76605;BME280;73179;50.978;16.998;2024-03-02T10:04:34;99375.91;;;10.65;100.00
76605;BME280;73179;50.978;16.998;2024-03-02T10:07:14;99434.38;;;11.02;100.00
76605;BME280;73179;50.978;16.998;2024-03-02T10:09:41;99383.28;;;10.86;100.00
76605;BME280;73179;50.978;16.998;2024-03-02T10:12:09;99478.41;;;11.43;100.00
76605;BME280;73179;50.978;16.998;2024-03-02T10:14:35;99387.97;;;10.94;100.00
76605;BME280;73179;50.978;16.998;2024-03-02T10:19:30;99503.03;;;11.69;100.00
76605;BME280;73179;50.978;16.998;2024-03-02T10:22:04;99461.31;;;11.56;100.00
76605;BME280;73179;50.978;16.998;2024-03-02T10:27:37;99323.34;;;10.79;100.00
76605;BME280;73179;50.978;16.998;2024-03-02T10:30:03;99278.13;;;10.44;100.00
76605;BME280;73179;50.978;16.998;2024-03-02T10:32:31;99490.69;;;11.76;100.00
76605;BME280;73179;50.978;16.998;2024-03-02T10:34:58;99490.13;;;11.88;100.00
76605;BME280;73179;50.978;16.998;2024-03-02T10:37:24;99388.19;;;11.20;100.00
76605;BME280;73179;50.978;16.998;2024-03-02T10:39:52;99501.22;;;12.00;100.00
76605;BME280;73179;50.978;16.998;2024-03-02T10:42:19;99326.06;;;11.02;100.00
76605;BME280;73179;50.978;16.998;2024-03-02T10:44:45;99294.66;;;10.78;100.00
76605;BME280;73179;50.978;16.998;2024-03-02T10:47:12;99490.38;;;12.09;100.00
76605;BME280;73179;50.978;16.998;2024-03-02T10:49:41;99395.88;;;11.49;100.00
76605;BME280;73179;50.978;16.998;2024-03-02T10:52:08;99438.41;;;11.84;100.00
76605;BME280;73179;50.978;16.998;2024-03-02T10:54:35;99361.84;;;11.34;100.00
76605;BME280;73179;50.978;16.998;2024-03-02T10:57:07;99250.34;;;10.52;100.00
76605;BME280;73179;50.978;16.998;2024-03-02T10:59:36;99441.38;;;11.74;100.00
76605;BME280;73179;50.978;16.998;2024-03-02T11:02:04;99415.09;;;11.61;100.00
76605;BME280;73179;50.978;16.998;2024-03-02T11:04:32;99505.50;;;12.23;100.00
76605;BME280;73179;50.978;16.998;2024-03-02T11:07:06;99290.59;;;10.89;100.00
76605;BME280;73179;50.978;16.998;2024-03-02T11:09:34;99487.66;;;12.31;100.00
76605;BME280;73179;50.978;16.998;2024-03-02T11:12:15;99488.28;;;12.28;100.00
76605;BME280;73179;50.978;16.998;2024-03-02T11:14:44;99488.25;;;12.19;100.00
76605;BME280;73179;50.978;16.998;2024-03-02T11:17:11;99484.63;;;12.32;100.00
76605;BME280;73179;50.978;16.998;2024-03-02T11:19:40;99321.50;;;11.33;100.00
76605;BME280;73179;50.978;16.998;2024-03-02T11:22:06;99423.59;;;11.90;100.00
76605;BME280;73179;50.978;16.998;2024-03-02T11:24:34;99478.88;;;12.34;100.00
76605;BME280;73179;50.978;16.998;2024-03-02T11:27:04;99346.00;;;11.50;100.00
76605;BME280;73179;50.978;16.998;2024-03-02T11:32:20;99427.69;;;12.10;100.00
76605;BME280;73179;50.978;16.998;2024-03-02T11:34:48;99414.63;;;12.12;100.00
76605;BME280;73179;50.978;16.998;2024-03-02T11:37:18;99316.66;;;11.52;100.00
76605;BME280;73179;50.978;16.998;2024-03-02T11:39:48;99338.34;;;11.74;100.00
76605;BME280;73179;50.978;16.998;2024-03-02T11:42:15;99430.50;;;12.36;100.00
76605;BME280;73179;50.978;16.998;2024-03-02T11:44:46;99429.72;;;12.35;100.00
76605;BME280;73179;50.978;16.998;2024-03-02T11:47:14;99464.16;;;12.66;100.00
76605;BME280;73179;50.978;16.998;2024-03-02T11:49:45;99460.69;;;12.74;100.00
76605;BME280;73179;50.978;16.998;2024-03-02T11:52:12;99394.25;;;12.23;100.00
76605;BME280;73179;50.978;16.998;2024-03-02T11:54:40;99464.38;;;12.78;100.00
76605;BME280;73179;50.978;16.998;2024-03-02T11:57:07;99463.41;;;12.82;100.00
76605;BME280;73179;50.978;16.998;2024-03-02T11:59:34;99467.59;;;12.88;100.00
76605;BME280;73179;50.978;16.998;2024-03-02T12:02:00;99439.25;;;12.72;100.00
76605;BME280;73179;50.978;16.998;2024-03-02T12:04:26;99431.25;;;12.67;100.00
76605;BME280;73179;50.978;16.998;2024-03-02T12:06:59;99374.94;;;12.33;100.00
76605;BME280;73179;50.978;16.998;2024-03-02T12:09:28;99385.72;;;12.47;100.00
76605;BME280;73179;50.978;16.998;2024-03-02T12:12:08;99418.97;;;12.70;100.00
76605;BME280;73179;50.978;16.998;2024-03-02T12:14:36;99424.91;;;12.80;100.00
76605;BME280;73179;50.978;16.998;2024-03-02T12:17:03;99444.25;;;12.87;100.00
76605;BME280;73179;50.978;16.998;2024-03-02T12:19:29;99469.22;;;13.07;100.00
76605;BME280;73179;50.978;16.998;2024-03-02T12:21:56;99437.06;;;12.92;100.00
76605;BME280;73179;50.978;16.998;2024-03-02T12:24:24;99459.19;;;13.16;100.00
76605;BME280;73179;50.978;16.998;2024-03-02T12:26:53;99437.06;;;12.92;100.00
76605;BME280;73179;50.978;16.998;2024-03-02T12:29:20;99460.31;;;13.15;100.00
76605;BME280;73179;50.978;16.998;2024-03-02T12:31:51;99469.09;;;13.12;100.00
76605;BME280;73179;50.978;16.998;2024-03-02T12:34:21;99340.47;;;12.34;100.00
76605;BME280;73179;50.978;16.998;2024-03-02T12:36:48;99459.84;;;13.13;100.00
76605;BME280;73179;50.978;16.998;2024-03-02T12:39:19;99409.25;;;12.77;100.00
76605;BME280;73179;50.978;16.998;2024-03-02T12:41:46;99460.13;;;13.11;100.00
76605;BME280;73179;50.978;16.998;2024-03-02T12:44:12;99367.84;;;12.55;100.00
76605;BME280;73179;50.978;16.998;2024-03-02T12:46:38;99405.22;;;12.75;100.00
76605;BME280;73179;50.978;16.998;2024-03-02T12:49:08;99404.16;;;12.84;100.00
76605;BME280;73179;50.978;16.998;2024-03-02T12:51:35;99325.47;;;12.28;100.00
76605;BME280;73179;50.978;16.998;2024-03-02T12:54:02;99434.50;;;12.95;100.00
76605;BME280;73179;50.978;16.998;2024-03-02T12:56:29;99418.00;;;12.74;100.00